createdAt,value
2018-12-20T00:01:54.135Z,95849.52
2018-12-20T00:04:23.394Z,95851.88
2018-12-20T00:06:53.549Z,95845.80
2018-12-20T00:09:23.135Z,95854.22
2018-12-20T00:11:54.140Z,95848.44
2018-12-20T00:14:29.728Z,95847.63
2018-12-20T00:17:00.310Z,95848.94
2018-12-20T00:19:29.582Z,95847.92
2018-12-20T00:21:59.258Z,95849.75
2018-12-20T00:24:30.047Z,95851.07
2018-12-20T00:26:59.428Z,95852.90
2018-12-20T00:29:28.759Z,95847.63
2018-12-20T00:31:59.051Z,95845.50
2018-12-20T00:34:29.078Z,95841.84
2018-12-20T00:36:58.527Z,95846.07
2018-12-20T00:39:27.964Z,95846.87
2018-12-20T00:41:57.287Z,95836.06
2018-12-20T00:44:27.437Z,95838.91
2018-12-20T00:46:56.843Z,95838.81
2018-12-20T00:49:26.484Z,95841.95
2018-12-20T00:51:55.878Z,95840.94
2018-12-20T00:54:25.240Z,95851.48
2018-12-20T00:56:56.841Z,95845.10
2018-12-20T00:59:26.176Z,95846.12
2018-12-20T01:01:55.561Z,95857.47
2018-12-20T01:04:24.887Z,95859.91
2018-12-20T01:06:54.750Z,95868.63
2018-12-20T01:09:25.177Z,95866.80
2018-12-20T01:11:57.602Z,95871.56
2018-12-20T01:14:26.968Z,95873.09
2018-12-20T01:16:56.916Z,95871.77
2018-12-20T01:19:26.500Z,95881.20
2018-12-20T01:21:55.754Z,95878.05
2018-12-20T01:24:25.062Z,95880.69
2018-12-20T01:26:54.426Z,95875.83
2018-12-20T01:29:23.721Z,95878.91
2018-12-20T01:31:53.105Z,95879.72
2018-12-20T01:34:22.733Z,95890.47
2018-12-20T01:36:52.007Z,95883.38
2018-12-20T01:39:22.671Z,95886.81
2018-12-20T01:41:52.033Z,95892.09
2018-12-20T01:44:21.301Z,95895.73
2018-12-20T01:46:50.749Z,95893.11
2018-12-20T01:49:20.806Z,95892.59
2018-12-20T01:51:50.176Z,95894.93
2018-12-20T01:54:19.948Z,95893.41
2018-12-20T01:56:49.221Z,95900.50
2018-12-20T02:02:29.344Z,95909.73
2018-12-20T02:05:00.031Z,95904.97
2018-12-20T02:07:30.647Z,95897.27
2018-12-20T02:10:01.164Z,95895.44
2018-12-20T02:12:30.529Z,95894.13
2018-12-20T02:15:02.480Z,95890.07
2018-12-20T02:17:31.881Z,95882.88
2018-12-20T02:20:01.170Z,95879.06
2018-12-20T02:22:30.939Z,95877.95
2018-12-20T02:25:00.436Z,95871.16
2018-12-20T02:27:30.177Z,95874.65
2018-12-20T02:30:03.250Z,95872.66
2018-12-20T02:32:32.501Z,95867.30
2018-12-20T02:35:02.546Z,95866.18
2018-12-20T02:37:31.969Z,95866.89
2018-12-20T02:40:01.398Z,95875.30
2018-12-20T02:42:32.401Z,95866.59
2018-12-20T02:45:10.494Z,95864.56
2018-12-20T02:47:33.379Z,95869.32
2018-12-20T02:50:02.744Z,95862.53
2018-12-20T02:52:32.922Z,95870.44
2018-12-20T02:55:02.377Z,95871.55
2018-12-20T02:57:32.770Z,95869.42
2018-12-20T03:00:03.714Z,95865.47
2018-12-20T03:02:34.513Z,95870.73
2018-12-20T03:05:03.949Z,95864.25
2018-12-20T03:07:33.837Z,95860.06
2018-12-20T03:10:03.214Z,95861.17
2018-12-20T03:12:33.244Z,95863.81
2018-12-20T03:15:03.981Z,95866.95
2018-12-20T03:17:33.482Z,95862.80
2018-12-20T03:20:03.103Z,95862.48
2018-12-20T03:22:33.261Z,95864.88
2018-12-20T03:25:02.576Z,95859.91
2018-12-20T03:27:32.116Z,95853.12
2018-12-20T03:30:01.999Z,95854.44
2018-12-20T03:32:31.382Z,95860.21
2018-12-20T03:35:00.685Z,95859.41
2018-12-20T03:37:30.226Z,95862.04
2018-12-20T03:40:00.225Z,95860.42
2018-12-20T03:42:29.525Z,95858.22
2018-12-20T03:45:00.658Z,95852.95
2018-12-20T03:47:29.946Z,95855.29
2018-12-20T03:49:59.326Z,95862.28
2018-12-20T03:52:28.860Z,95855.70
2018-12-20T03:54:58.684Z,95864.41
2018-12-20T03:57:28.196Z,95856.34
2018-12-20T03:59:57.465Z,95860.56
2018-12-20T04:02:26.796Z,95855.73
2018-12-20T04:04:56.625Z,95856.75
2018-12-20T04:07:26.687Z,95851.99
2018-12-20T04:09:56.255Z,95859.59
2018-12-20T04:12:28.080Z,95857.88
2018-12-20T04:14:57.505Z,95859.19
2018-12-20T04:17:26.789Z,95852.30
2018-12-20T04:19:57.559Z,95851.52
2018-12-20T04:22:26.850Z,95853.62
2018-12-20T04:24:56.248Z,95852.61
2018-12-20T04:27:25.577Z,95855.98
2018-12-20T04:29:54.911Z,95855.75
2018-12-20T04:32:25.155Z,95854.42
2018-12-20T04:34:55.532Z,95851.52
2018-12-20T04:37:24.957Z,95853.11
2018-12-20T04:39:55.446Z,95849.39
2018-12-20T04:42:25.522Z,95850.71
2018-12-20T04:44:55.312Z,95843.02
2018-12-20T04:47:25.030Z,95843.52
2018-12-20T04:49:54.473Z,95840.58
2018-12-20T04:52:23.867Z,95840.88
2018-12-20T04:54:53.792Z,95843.12
2018-12-20T04:57:23.283Z,95844.94
2018-12-20T04:59:53.553Z,95844.94
2018-12-20T05:02:23.366Z,95847.17
2018-12-20T05:04:52.919Z,95848.79
2018-12-20T05:07:22.156Z,95853.86
2018-12-20T05:09:51.769Z,95862.27
2018-12-20T05:12:21.124Z,95863.08
2018-12-20T05:14:50.393Z,95855.23
2018-12-20T05:17:20.336Z,95860.70
2018-12-20T05:25:59.696Z,95868.88
2018-12-20T05:28:29.318Z,95865.73
2018-12-20T05:30:58.863Z,95872.11
2018-12-20T05:33:28.264Z,95868.47
2018-12-20T05:35:57.521Z,95873.02
2018-12-20T05:38:27.640Z,95874.10
2018-12-20T05:40:57.154Z,95875.72
2018-12-20T05:43:27.299Z,95869.95
2018-12-20T05:46:04.494Z,95869.34
2018-12-20T05:48:29.467Z,95863.40
2018-12-20T05:50:58.990Z,95874.86
2018-12-20T05:53:30.254Z,95871.41
2018-12-20T05:56:00.221Z,95867.35
2018-12-20T05:58:31.330Z,95870.89
2018-12-20T06:01:02.478Z,95871.87
2018-12-20T06:03:31.898Z,95868.02
2018-12-20T06:06:01.292Z,95874.46
2018-12-20T06:08:30.611Z,95866.23
2018-12-20T06:11:00.975Z,95867.34
2018-12-20T06:13:30.653Z,95870.26
2018-12-20T06:16:01.143Z,95869.44
2018-12-20T06:18:30.592Z,95869.52
2018-12-20T06:21:03.647Z,95870.40
2018-12-20T06:23:33.083Z,95868.16
2018-12-20T06:26:02.660Z,95859.84
2018-12-20T06:28:31.925Z,95862.84
2018-12-20T06:31:01.846Z,95858.16
2018-12-20T06:33:31.109Z,95865.66
2018-12-20T06:36:00.441Z,95870.48
2018-12-20T06:38:30.210Z,95874.38
2018-12-20T06:41:00.178Z,95876.72
2018-12-20T06:43:29.466Z,95873.27
2018-12-20T06:46:00.839Z,95876.11
2018-12-20T06:48:31.021Z,95877.64
2018-12-20T06:51:00.642Z,95884.23
2018-12-20T06:53:32.339Z,95887.68
2018-12-20T06:56:01.575Z,95891.22
2018-12-20T06:58:32.489Z,95888.23
2018-12-20T07:01:03.768Z,95886.50
2018-12-20T07:03:33.290Z,95895.73
2018-12-20T07:06:03.136Z,95893.81
2018-12-20T07:08:34.726Z,95895.13
2018-12-20T07:11:04.905Z,95890.66
2018-12-20T07:13:35.533Z,95891.98
2018-12-20T07:16:04.799Z,95891.47
2018-12-20T07:18:37.205Z,95893.70
2018-12-20T07:21:09.421Z,95893.25
2018-12-20T07:23:39.223Z,95891.09
2018-12-20T07:26:08.957Z,95886.27
2018-12-20T07:28:38.201Z,95892.30
2018-12-20T07:31:07.466Z,95888.44
2018-12-20T07:33:36.716Z,95894.97
2018-12-20T07:36:06.188Z,95896.89
2018-12-20T07:38:35.559Z,95901.96
2018-12-20T07:41:05.198Z,95904.81
2018-12-20T07:43:37.440Z,95910.17
2018-12-20T07:46:06.949Z,95901.54
2018-12-20T07:48:37.785Z,95902.86
2018-12-20T07:51:14.728Z,95907.84
2018-12-20T07:53:43.968Z,95912.01
2018-12-20T07:56:13.741Z,95913.84
2018-12-20T07:58:43.348Z,95911.50
2018-12-20T08:01:16.928Z,95917.89
2018-12-20T08:03:47.513Z,95913.56
2018-12-20T08:06:18.381Z,95923.92
2018-12-20T08:08:48.630Z,95919.53
2018-12-20T08:11:20.594Z,95924.75
2018-12-20T08:13:50.222Z,95918.03
2018-12-20T08:16:20.448Z,95918.59
2018-12-20T08:18:49.680Z,95912.59
2018-12-20T08:21:20.589Z,95914.01
2018-12-20T08:23:50.521Z,95919.67
2018-12-20T08:26:20.633Z,95918.71
2018-12-20T08:28:49.901Z,95919.09
2018-12-20T08:31:22.132Z,95917.62
2018-12-20T08:33:54.338Z,95921.67
2018-12-20T08:36:24.128Z,95921.97
2018-12-20T08:38:54.766Z,95926.95
2018-12-20T08:41:25.691Z,95929.80
2018-12-20T08:43:54.930Z,95933.25
2018-12-20T08:46:24.140Z,95935.17
2018-12-20T08:48:54.902Z,95939.02
2018-12-20T08:52:27.557Z,95931.86
2018-12-20T08:54:56.815Z,95930.33
2018-12-20T08:57:26.979Z,95936.59
2018-12-20T08:59:58.022Z,95934.02
2018-12-20T09:02:28.633Z,95943.13
2018-12-20T09:04:57.915Z,95947.18
2018-12-20T09:07:27.235Z,95946.30
2018-12-20T09:09:57.756Z,95948.09
2018-12-20T09:12:28.743Z,95951.89
2018-12-20T09:14:58.676Z,95955.77
2018-12-20T09:17:28.565Z,95948.91
2018-12-20T09:19:58.269Z,95952.49
2018-12-20T09:22:28.032Z,95955.27
2018-12-20T09:24:57.317Z,95950.88
2018-12-20T09:27:27.029Z,95948.23
2018-12-20T09:29:56.337Z,95949.72
2018-12-20T09:32:25.658Z,95948.53
2018-12-20T09:34:54.897Z,95945.29
2018-12-20T09:37:25.845Z,95949.77
2018-12-20T09:39:55.121Z,95949.47
2018-12-20T09:42:24.911Z,95946.56
2018-12-20T09:44:54.495Z,95938.25
2018-12-20T09:47:28.989Z,95935.39
2018-12-20T09:49:59.776Z,95937.00
2018-12-20T09:52:30.028Z,95931.77
2018-12-20T09:55:00.048Z,95923.32
2018-12-20T09:57:29.420Z,95925.83
2018-12-20T10:00:00.554Z,95922.87
2018-12-20T10:02:29.880Z,95927.72
2018-12-20T10:04:59.524Z,95924.89
2018-12-20T10:07:29.524Z,95920.41
2018-12-20T10:10:00.633Z,95914.69
2018-12-20T10:12:29.921Z,95909.30
2018-12-20T10:14:59.546Z,95910.67
2018-12-20T10:17:30.094Z,95902.28
2018-12-20T10:20:00.646Z,95898.09
2018-12-20T10:22:30.020Z,95906.23
2018-12-20T10:25:00.092Z,95912.30
2018-12-20T10:27:31.540Z,95903.25
2018-12-20T10:30:01.233Z,95909.28
2018-12-20T10:32:30.501Z,95912.84
2018-12-20T10:35:02.956Z,95900.05
2018-12-20T10:38:20.321Z,95899.13
2018-12-20T10:41:16.433Z,95894.56
2018-12-20T10:43:45.815Z,95887.14
2018-12-20T10:46:15.867Z,95883.98
2018-12-20T10:48:52.232Z,95889.12
2018-12-20T10:51:22.393Z,95888.66
2018-12-20T10:53:52.452Z,95879.23
2018-12-20T10:56:22.053Z,95880.45
2018-12-20T10:58:51.800Z,95879.56
2018-12-20T11:01:26.537Z,95870.99
2018-12-20T11:04:03.255Z,95872.72
2018-12-20T11:06:37.945Z,95870.14
2018-12-20T11:09:14.062Z,95873.08
2018-12-20T11:11:48.301Z,95869.11
2018-12-20T11:14:18.150Z,95876.76
2018-12-20T11:16:49.446Z,95876.98
2018-12-20T11:19:20.849Z,95872.38
2018-12-20T11:21:50.478Z,95865.53
2018-12-20T11:24:20.553Z,95869.34
2018-12-20T11:26:49.839Z,95868.18
2018-12-20T11:29:20.027Z,95865.64
2018-12-20T11:31:50.020Z,95865.80
2018-12-20T11:34:19.331Z,95875.70
2018-12-20T11:36:49.526Z,95869.48
2018-12-20T11:39:18.865Z,95863.76
2018-12-20T11:41:48.510Z,95869.09
2018-12-20T11:44:18.574Z,95862.30
2018-12-20T11:46:49.122Z,95867.59
2018-12-20T11:49:18.638Z,95868.77
2018-12-20T11:51:48.519Z,95869.23
2018-12-20T11:54:18.040Z,95863.06
2018-12-20T11:56:48.303Z,95868.06
2018-12-20T11:59:17.869Z,95867.84
2018-12-20T12:01:47.760Z,95872.47
2018-12-20T12:04:18.021Z,95872.88
2018-12-20T12:06:52.521Z,95877.06
2018-12-20T12:09:21.833Z,95874.05
2018-12-20T12:11:51.944Z,95879.60
2018-12-20T12:14:22.848Z,95881.37
2018-12-20T12:16:54.366Z,95882.83
2018-12-20T12:19:24.366Z,95881.77
2018-12-20T12:21:54.489Z,95881.52
2018-12-20T12:24:24.467Z,95887.05
2018-12-20T12:26:55.364Z,95883.52
2018-12-20T12:29:26.814Z,95881.10
2018-12-20T12:31:56.237Z,95881.31
2018-12-20T12:34:27.996Z,95878.89
2018-12-20T12:36:58.573Z,95881.25
2018-12-20T12:39:29.143Z,95883.63
2018-12-20T12:42:01.378Z,95887.59
2018-12-20T12:44:33.735Z,95893.62
2018-12-20T12:47:18.629Z,95893.76
2018-12-20T12:49:50.503Z,95898.83
2018-12-20T12:52:31.027Z,95892.52
2018-12-20T12:55:00.646Z,95885.91
2018-12-20T12:57:31.315Z,95888.33
2018-12-20T13:00:02.095Z,95882.45
2018-12-20T13:02:33.417Z,95882.95
2018-12-20T13:05:02.763Z,95881.42
2018-12-20T13:07:32.729Z,95878.48
2018-12-20T13:10:02.345Z,95885.91
2018-12-20T13:12:31.737Z,95880.91
2018-12-20T13:15:01.728Z,95883.55
2018-12-20T13:17:31.910Z,95890.68
2018-12-20T13:20:01.189Z,95884.36
2018-12-20T13:22:30.465Z,95884.36
2018-12-20T13:25:00.312Z,95895.16
2018-12-20T13:27:32.085Z,95890.68
2018-12-20T13:30:02.708Z,95888.84
2018-12-20T13:32:33.413Z,95889.43
2018-12-20T13:35:02.746Z,95894.72
2018-12-20T13:37:32.045Z,95897.62
2018-12-20T13:40:01.898Z,95891.31
2018-12-20T13:42:31.948Z,95887.13
2018-12-20T13:45:02.210Z,95891.39
2018-12-20T13:47:32.193Z,95889.03
2018-12-20T13:50:03.977Z,95890.36
2018-12-20T13:52:34.340Z,95894.33
2018-12-20T13:55:05.104Z,95895.95
2018-12-20T13:57:37.659Z,95897.05
2018-12-20T14:00:11.788Z,95897.86
2018-12-20T14:02:43.158Z,95899.19
2018-12-20T14:05:12.659Z,95897.34
2018-12-20T14:07:44.886Z,95891.24
2018-12-20T14:10:14.640Z,95897.86
2018-12-20T14:12:45.201Z,95896.23
2018-12-20T14:15:14.540Z,95900.42
2018-12-20T14:17:44.560Z,95895.06
2018-12-20T14:20:13.967Z,95901.67
2018-12-20T14:22:47.908Z,95906.38
2018-12-20T14:25:18.619Z,95904.50
2018-12-20T14:27:58.713Z,95905.23
2018-12-20T14:30:29.185Z,95906.84
2018-12-20T14:32:58.503Z,95905.23
2018-12-20T14:35:27.744Z,95904.20
2018-12-20T14:37:57.929Z,95901.26
2018-12-20T14:40:28.495Z,95897.88
2018-12-20T14:42:58.396Z,95905.52
2018-12-20T14:45:27.942Z,95910.86
2018-12-20T14:47:57.551Z,95908.51
2018-12-20T14:50:29.823Z,95911.67
2018-12-20T14:53:04.858Z,95916.96
2018-12-20T14:55:35.910Z,95911.41
2018-12-20T14:58:07.825Z,95920.20
2018-12-20T15:00:38.154Z,95917.55
2018-12-20T15:03:08.351Z,95912.26
2018-12-20T15:05:38.549Z,95911.53
2018-12-20T15:08:08.380Z,95920.79
2018-12-20T15:10:38.693Z,95913.95
2018-12-20T15:13:10.000Z,95918.22
2018-12-20T15:15:45.185Z,95924.66
2018-12-20T15:18:15.970Z,95918.81
2018-12-20T15:20:45.503Z,95929.44
2018-12-20T15:30:15.777Z,95937.59
2018-12-20T15:32:45.549Z,95939.97
2018-12-20T15:35:14.852Z,95937.55
2018-12-20T15:37:44.104Z,95939.61
2018-12-20T15:40:19.269Z,95945.70
2018-12-20T15:42:48.990Z,95945.92
2018-12-20T15:45:19.787Z,95946.95
2018-12-20T15:47:49.612Z,95947.98
2018-12-20T15:50:19.068Z,95952.46
2018-12-20T15:52:48.709Z,95950.11
2018-12-20T15:55:17.939Z,95946.14
2018-12-20T15:57:47.517Z,95951.14
2018-12-20T16:00:16.817Z,95954.52
2018-12-20T16:02:53.580Z,95949.98
2018-12-20T16:05:24.136Z,95949.98
2018-12-20T16:07:55.445Z,95953.36
2018-12-20T16:10:24.810Z,95954.39
2018-12-20T16:12:54.234Z,95953.58
2018-12-20T16:15:23.629Z,95959.60
2018-12-20T16:17:55.056Z,95959.67
2018-12-20T16:20:24.446Z,95957.62
2018-12-20T16:22:54.081Z,95956.09
2018-12-20T16:25:23.454Z,95956.89
2018-12-20T16:27:56.199Z,95958.44
2018-12-20T16:30:26.503Z,95961.30
2018-12-20T16:32:58.589Z,95963.86
2018-12-20T16:35:28.266Z,95960.63
2018-12-20T16:37:58.610Z,95954.31
2018-12-20T16:40:34.789Z,95957.47
2018-12-20T16:43:05.266Z,95961.22
2018-12-20T16:45:41.718Z,95961.00
2018-12-20T16:48:11.503Z,95959.16
2018-12-20T16:50:41.664Z,95957.77
2018-12-20T16:53:13.261Z,95952.69
2018-12-20T16:55:43.577Z,95955.34
2018-12-20T16:58:15.244Z,95955.04
2018-12-20T17:00:45.807Z,95957.69
2018-12-20T17:03:18.461Z,95960.06
2018-12-20T17:05:48.282Z,95957.64
2018-12-20T17:08:19.302Z,95956.53
2018-12-20T17:10:50.164Z,95956.02
2018-12-20T17:13:19.603Z,95955.20
2018-12-20T17:18:47.733Z,95962.25
2018-12-20T17:21:17.506Z,95966.52
2018-12-20T17:23:48.736Z,95962.34
2018-12-20T17:28:55.666Z,95958.37
2018-12-20T17:31:30.163Z,95963.95
2018-12-20T17:34:07.419Z,95959.47
2018-12-20T17:36:54.773Z,95965.06
2018-12-20T17:39:25.250Z,95962.84
2018-12-20T17:42:00.162Z,95963.66
2018-12-20T17:44:31.360Z,95966.52
2018-12-20T17:47:01.239Z,95972.32
2018-12-20T17:49:31.247Z,95965.49
2018-12-20T17:52:02.416Z,95968.65
2018-12-20T17:54:47.540Z,95969.89
2018-12-20T17:57:18.073Z,95962.84
2018-12-20T17:59:47.981Z,95966.08
2018-12-20T18:02:20.435Z,95966.30
2018-12-20T18:04:50.251Z,95967.92
2018-12-20T18:07:20.841Z,95967.41
2018-12-20T18:09:51.527Z,95965.87
2018-12-20T18:14:58.330Z,95971.08
2018-12-20T18:17:29.524Z,95971.08
2018-12-20T18:19:59.564Z,95971.08
2018-12-20T18:22:30.778Z,95985.63
2018-12-20T18:25:03.294Z,95982.77
2018-12-20T18:27:38.687Z,95976.16
2018-12-20T18:30:26.944Z,95989.38
2018-12-20T18:33:02.342Z,95987.25
2018-12-20T18:35:35.594Z,95989.89
2018-12-20T18:38:05.645Z,95984.69
2018-12-20T18:40:38.438Z,95983.41
2018-12-20T18:43:09.657Z,95979.81
2018-12-20T18:45:47.299Z,95979.09
2018-12-20T18:48:31.890Z,95979.59
2018-12-20T18:51:23.166Z,95990.18
2018-12-20T18:54:09.968Z,95993.13
2018-12-20T18:56:45.436Z,95987.02
2018-12-20T18:59:28.727Z,95993.64
2018-12-20T19:02:12.850Z,95987.08
2018-12-20T19:04:47.669Z,96000.59
2018-12-20T19:07:22.421Z,95992.61
2018-12-20T19:09:55.988Z,95994.45
2018-12-20T19:12:32.799Z,95993.13
2018-12-20T19:15:05.067Z,95997.39
2018-12-20T19:17:38.664Z,95991.55
2018-12-20T19:20:16.142Z,95996.06
2018-12-20T19:22:56.101Z,95981.22
2018-12-20T19:28:09.574Z,95997.09
2018-12-20T19:30:50.413Z,95994.45
2018-12-20T19:33:33.146Z,95991.20
2018-12-20T19:36:07.634Z,96000.77
2018-12-20T19:38:41.666Z,96002.38
2018-12-20T19:41:17.244Z,95995.01
2018-12-20T19:43:59.325Z,96001.11
2018-12-20T19:46:33.317Z,95996.12
2018-12-20T19:49:08.382Z,95997.66
2018-12-20T19:51:49.660Z,96000.03
2018-12-20T19:57:01.460Z,95995.39
2018-12-20T19:59:38.737Z,95999.95
2018-12-20T20:02:13.103Z,95998.63
2018-12-20T20:07:42.851Z,95990.30
2018-12-20T20:10:20.041Z,95998.53
2018-12-20T20:12:55.788Z,95991.92
2018-12-20T20:15:33.778Z,95988.98
2018-12-20T20:18:17.648Z,95991.03
2018-12-20T20:21:04.830Z,95990.91
2018-12-20T20:23:35.237Z,95988.17
2018-12-20T20:26:12.778Z,95990.17
2018-12-20T20:28:51.902Z,95989.36
2018-12-20T20:31:23.428Z,95992.30
2018-12-20T20:33:57.357Z,95987.53
2018-12-20T20:36:31.945Z,95993.67
2018-12-20T20:39:04.790Z,95994.56
2018-12-20T20:41:35.763Z,95995.59
2018-12-20T20:44:10.121Z,95994.56
2018-12-20T20:46:42.362Z,95999.50
2018-12-20T20:49:13.741Z,95998.22
2018-12-20T20:51:45.616Z,95997.13
2018-12-20T20:54:16.018Z,96002.20
2018-12-20T20:56:48.911Z,96001.17
2018-12-20T20:59:29.186Z,95996.61
2018-12-20T21:02:02.553Z,96000.14
2018-12-20T21:04:33.418Z,95987.20
2018-12-20T21:07:20.652Z,95982.94
2018-12-20T21:09:51.603Z,95984.87
2018-12-20T21:12:23.254Z,95985.09
2018-12-20T21:14:53.538Z,95988.16
2018-12-20T21:17:23.963Z,95993.63
2018-12-20T21:19:54.615Z,95990.69
2018-12-20T21:22:24.332Z,95988.26
2018-12-20T21:24:55.504Z,95996.62
2018-12-20T21:27:32.377Z,95995.26
2018-12-20T21:30:02.680Z,95999.36
2018-12-20T21:32:33.449Z,96000.03
2018-12-20T21:35:03.880Z,96007.16
2018-12-20T21:37:33.628Z,96003.32
2018-12-20T21:40:05.410Z,96011.34
2018-12-20T21:42:35.873Z,96010.83
2018-12-20T21:45:08.752Z,96003.23
2018-12-20T21:47:38.595Z,96009.84
2018-12-20T21:50:11.354Z,96009.93
2018-12-20T21:52:41.486Z,96021.33
2018-12-20T21:55:12.073Z,96010.89
2018-12-20T21:57:41.637Z,96010.01
2018-12-20T22:00:11.841Z,96012.95
2018-12-20T22:02:41.103Z,96017.95
2018-12-20T22:05:10.430Z,96018.54
2018-12-20T22:07:40.567Z,96016.63
2018-12-20T22:10:12.176Z,96006.38
2018-12-20T22:12:41.975Z,96004.84
2018-12-20T22:15:12.178Z,96005.60
2018-12-20T22:17:42.302Z,96004.50
2018-12-20T22:20:12.533Z,96003.39
2018-12-20T22:22:42.303Z,96001.55
2018-12-20T22:25:12.871Z,96001.34
2018-12-20T22:27:43.146Z,96003.00
2018-12-20T22:30:12.548Z,96008.38
2018-12-20T22:32:42.399Z,96003.59
2018-12-20T22:35:12.386Z,96005.00
2018-12-20T22:37:42.469Z,96002.86
2018-12-20T22:40:11.941Z,95992.87
2018-12-20T22:42:45.651Z,96000.30
2018-12-20T22:46:07.418Z,95993.94
2018-12-20T22:50:14.937Z,95991.89
2018-12-20T22:52:44.433Z,95990.34
2018-12-20T22:55:13.750Z,95992.99
2018-12-20T22:57:43.304Z,95995.64
2018-12-20T23:00:34.619Z,95994.39
2018-12-20T23:03:07.298Z,95996.16
2018-12-20T23:05:36.982Z,95990.64
2018-12-20T23:08:06.311Z,95996.53
2018-12-20T23:10:36.022Z,95997.04
2018-12-20T23:13:05.259Z,96005.91
2018-12-20T23:15:35.501Z,95999.00
2018-12-20T23:18:04.834Z,95999.30
2018-12-20T23:20:34.493Z,96006.20
2018-12-20T23:23:04.788Z,95994.81
2018-12-20T23:25:37.051Z,95999.81
2018-12-20T23:28:08.044Z,96001.09
2018-12-20T23:30:39.642Z,96003.73
2018-12-20T23:33:08.942Z,95997.38
2018-12-20T23:35:38.511Z,95999.77
2018-12-20T23:38:10.251Z,96001.90
2018-12-20T23:40:40.896Z,95996.53
2018-12-20T23:43:10.138Z,95995.28
2018-12-20T23:45:39.443Z,95999.00
2018-12-20T23:48:10.325Z,95998.70
2018-12-20T23:50:41.051Z,95999.08
2018-12-20T23:53:11.469Z,95990.84
2018-12-20T23:55:40.729Z,95987.16
2018-12-20T23:58:10.036Z,95990.55
